Terminal Aerodrome Forecast
Issued by NWS Wakefield, VA

Home | Current Version | Previous Version | Text Only | Print | Product List | Glossary On
Versions: 1 2 3 4 5 6 7 8 9 10 11 12 13 14 15 16
000
FTUS41 KAKQ 230100 AAA
TAFECG
TAF AMD
KECG 230138Z 2302/2324 33007KT 2SM BR OVC002
     FM230600 01003KT 1SM -DZ BR OVC003
     FM231700 13003KT 3SM -DZ BR OVC005=

USA.gov is the U.S. government's official web portal to all federal, state and local government web resources and services.